Time;durP1;ratioP1;P1;durP2;ratioP2;P2;SDS_P1;SDS_P2;PMS_P1;PMS_P2;Temp;Humidity;BMP_temperature;BMP_pressure;BME280_temperature;BME280_humidity;BME280_pressure;Samples;Min_cycle;Max_cycle;Signal;HPM_P1;HPM_P2
2021/01/31 00:02:05;;;;;;;2.30;1.20;;;17.90;57.00;;;;;;10271124;28;20038;-57
2021/01/31 00:07:05;;;;;;;1.83;1.10;;;17.90;57.00;;;;;;10259348;28;566066;-57
2021/01/31 00:12:06;;;;;;;2.10;1.20;;;17.80;56.90;;;;;;10268918;28;20027;-58
2021/01/31 00:17:07;;;;;;;1.60;1.10;;;17.90;56.90;;;;;;10257601;28;20034;-58
2021/01/31 00:22:08;;;;;;;1.73;1.15;;;17.90;56.90;;;;;;10287361;28;20028;-57
2021/01/31 00:27:09;;;;;;;1.63;1.05;;;17.90;56.80;;;;;;10281962;28;20039;-58
2021/01/31 00:32:09;;;;;;;1.73;1.08;;;17.80;56.80;;;;;;10280383;28;20042;-57
2021/01/31 00:37:10;;;;;;;1.90;1.23;;;17.80;56.90;;;;;;10270196;28;20027;-57
2021/01/31 00:42:15;;;;;;;2.20;1.17;;;17.90;56.90;;;;;;10280171;28;20114;-57
2021/01/31 00:47:17;;;;;;;2.17;1.33;;;17.80;56.80;;;;;;10256224;28;20032;-57
2021/01/31 00:52:22;;;;;;;1.77;1.10;;;17.80;56.80;;;;;;10272706;28;20070;-57
2021/01/31 00:57:23;;;;;;;1.70;1.27;;;17.80;56.70;;;;;;10277723;28;20081;-57
2021/01/31 01:02:23;;;;;;;1.80;1.13;;;17.80;56.70;;;;;;10286740;28;20178;-58
2021/01/31 01:07:24;;;;;;;2.05;1.27;;;17.80;56.60;;;;;;10269211;28;20051;-58
2021/01/31 01:12:25;;;;;;;1.90;1.10;;;17.80;56.70;;;;;;10264963;28;20030;-57
2021/01/31 01:17:25;;;;;;;1.35;1.05;;;17.80;56.60;;;;;;10260234;28;20107;-57
2021/01/31 01:22:26;;;;;;;2.05;1.33;;;17.80;56.60;;;;;;10285912;28;20027;-57
2021/01/31 01:27:27;;;;;;;1.52;1.00;;;17.80;56.60;;;;;;10286783;28;20380;-57
2021/01/31 01:32:28;;;;;;;1.92;1.27;;;17.80;56.60;;;;;;10281302;28;20031;-57
2021/01/31 01:37:29;;;;;;;2.30;1.27;;;17.80;56.50;;;;;;10280467;28;20038;-57
2021/01/31 01:42:30;;;;;;;1.60;1.10;;;17.80;56.40;;;;;;10268912;28;20397;-56
2021/01/31 01:47:30;;;;;;;2.15;1.65;;;17.80;56.50;;;;;;10262905;28;20031;-57
2021/01/31 01:52:39;;;;;;;1.80;1.35;;;17.80;56.40;;;;;;10281157;28;20034;-57
2021/01/31 01:57:47;;;;;;;2.00;1.23;;;17.80;56.30;;;;;;10277908;28;20564;-57
2021/01/31 02:03:01;;;;;;;1.70;1.17;;;17.80;56.30;;;;;;10279955;28;20034;-58
2021/01/31 02:08:04;;;;;;;1.42;1.10;;;17.80;56.30;;;;;;10263304;28;20055;-57
2021/01/31 02:13:05;;;;;;;1.85;1.30;;;17.80;56.20;;;;;;10267556;28;20023;-58
2021/01/31 02:18:56;;;;;;;1.55;1.25;;;17.80;56.20;;;;;;10290770;28;20037;-58
2021/01/31 02:24:27;;;;;;;1.35;1.13;;;17.80;56.20;;;;;;10284933;28;20086;-57
2021/01/31 02:30:03;;;;;;;2.30;1.30;;;17.80;56.20;;;;;;10281293;28;20023;-57
2021/01/31 02:35:22;;;;;;;1.45;1.10;;;17.80;56.20;;;;;;10285369;28;20030;-57
2021/01/31 02:40:36;;;;;;;2.60;1.30;;;17.70;56.00;;;;;;10276038;28;20019;-57
2021/01/31 02:45:51;;;;;;;2.38;1.10;;;17.80;56.20;;;;;;10281632;28;22403;-57
2021/01/31 02:51:01;;;;;;;1.75;1.20;;;17.70;56.00;;;;;;10292095;28;20105;-57
2021/01/31 02:56:22;;;;;;;2.47;1.42;;;17.80;56.00;;;;;;10276445;28;20111;-57
2021/01/31 03:01:47;;;;;;;1.50;1.10;;;17.70;56.10;;;;;;10274548;28;20134;-56
2021/01/31 03:06:56;;;;;;;1.40;1.00;;;17.70;56.00;;;;;;10275718;28;20042;-57
2021/01/31 03:12:14;;;;;;;3.42;1.30;;;17.80;56.10;;;;;;10282006;28;20074;-57
2021/01/31 03:17:30;;;;;;;3.13;1.40;;;17.70;56.00;;;;;;10268212;28;20086;-57
2021/01/31 03:23:15;;;;;;;1.13;0.88;;;17.80;56.00;;;;;;10283953;28;20378;-56
2021/01/31 03:28:16;;;;;;;1.50;1.00;;;17.80;55.90;;;;;;10278117;28;20042;-57
2021/01/31 03:33:25;;;;;;;1.58;1.10;;;17.70;56.00;;;;;;10286898;28;20034;-57
2021/01/31 03:38:48;;;;;;;1.50;1.00;;;17.70;56.00;;;;;;10285023;28;20038;-57
2021/01/31 03:43:49;;;;;;;2.28;1.35;;;17.70;56.00;;;;;;10269770;28;20113;-56
2021/01/31 03:49:38;;;;;;;1.77;1.15;;;17.70;55.90;;;;;;10261961;28;20540;-57
2021/01/31 03:54:38;;;;;;;1.50;1.23;;;17.70;55.80;;;;;;10239934;28;20035;-57
2021/01/31 04:00:05;;;;;;;1.75;1.15;;;17.70;55.90;;;;;;10270317;28;20039;-57
2021/01/31 04:05:09;;;;;;;2.13;1.30;;;17.70;56.40;;;;;;10259363;28;20093;-57
2021/01/31 04:10:10;;;;;;;1.40;1.13;;;17.70;55.80;;;;;;10281054;28;20047;-57
2021/01/31 04:15:51;;;;;;;1.52;1.10;;;17.70;55.80;;;;;;10259158;28;20031;-57
2021/01/31 04:20:53;;;;;;;1.67;1.25;;;17.70;55.80;;;;;;10283976;28;20085;-56
2021/01/31 04:25:54;;;;;;;2.25;1.33;;;17.70;55.80;;;;;;10285389;28;20035;-57
2021/01/31 04:30:59;;;;;;;2.47;1.30;;;17.70;55.80;;;;;;10279652;28;20027;-57
2021/01/31 04:36:00;;;;;;;1.88;1.38;;;17.70;55.80;;;;;;10272623;28;20081;-56
2021/01/31 04:41:01;;;;;;;2.30;1.63;;;17.70;55.80;;;;;;10270532;28;20113;-57
2021/01/31 04:46:02;;;;;;;2.05;1.35;;;17.70;55.70;;;;;;10269830;28;20031;-57
2021/01/31 04:51:19;;;;;;;3.10;1.27;;;17.70;55.60;;;;;;10262062;28;20122;-57
2021/01/31 04:57:00;;;;;;;1.63;1.27;;;17.70;55.60;;;;;;10287750;28;20023;-57
2021/01/31 05:02:15;;;;;;;1.60;1.10;;;17.70;55.40;;;;;;10286447;28;20046;-56
2021/01/31 05:07:17;;;;;;;1.85;1.35;;;17.70;55.40;;;;;;10277761;28;20055;-56
2021/01/31 05:12:22;;;;;;;2.60;1.20;;;17.70;55.40;;;;;;10275091;28;20031;-56
2021/01/31 05:17:23;;;;;;;1.83;1.20;;;17.70;55.40;;;;;;10271764;28;20027;-57
2021/01/31 05:22:29;;;;;;;2.33;1.50;;;17.70;55.30;;;;;;10287779;28;20487;-57
2021/01/31 05:27:33;;;;;;;2.63;1.40;;;17.70;55.20;;;;;;10290424;28;20361;-57
2021/01/31 05:33:01;;;;;;;1.67;1.27;;;17.60;55.20;;;;;;10286391;28;20652;-56
2021/01/31 05:38:02;;;;;;;2.55;1.80;;;17.70;55.20;;;;;;10281908;28;20042;-56
2021/01/31 05:43:06;;;;;;;2.10;1.27;;;17.70;55.10;;;;;;10271231;28;20098;-56
2021/01/31 05:48:30;;;;;;;2.08;1.45;;;17.60;54.90;;;;;;10281318;28;20039;-56
2021/01/31 05:53:36;;;;;;;2.20;1.40;;;17.60;54.90;;;;;;10264736;28;20039;-55
2021/01/31 05:58:37;;;;;;;1.55;1.23;;;17.70;55.00;;;;;;10300775;28;20502;-56
2021/01/31 06:03:39;;;;;;;2.28;1.77;;;17.60;54.80;;;;;;10278655;28;20049;-57
2021/01/31 06:08:47;;;;;;;2.20;1.50;;;17.60;54.90;;;;;;10283351;28;20078;-56
2021/01/31 06:14:31;;;;;;;1.90;1.60;;;17.70;54.90;;;;;;10271050;28;20035;-57
2021/01/31 06:19:37;;;;;;;2.10;1.40;;;17.70;54.70;;;;;;10277501;28;20043;-57
2021/01/31 06:24:48;;;;;;;2.10;1.50;;;17.60;54.60;;;;;;10292074;28;20379;-57
2021/01/31 06:30:12;;;;;;;1.85;1.33;;;17.60;54.70;;;;;;10283706;28;20081;-57
2021/01/31 06:35:17;;;;;;;2.88;1.92;;;17.60;54.70;;;;;;10288053;28;20110;-57
2021/01/31 06:40:57;;;;;;;2.65;1.60;;;17.50;54.90;;;;;;10265677;28;20115;-56
2021/01/31 06:46:10;;;;;;;4.93;1.60;;;17.40;55.00;;;;;;10264417;28;20498;-57
2021/01/31 06:51:27;;;;;;;8.95;2.28;;;17.40;55.90;;;;;;10258154;28;20019;-57
2021/01/31 06:57:01;;;;;;;4.82;2.45;;;17.40;56.00;;;;;;10268070;28;20166;-56
2021/01/31 07:02:34;;;;;;;3.05;1.65;;;17.40;56.60;;;;;;10282347;28;20398;-57
2021/01/31 07:07:57;;;;;;;15.88;2.58;;;17.40;56.80;;;;;;10280089;28;20049;-56
2021/01/31 07:13:43;;;;;;;7.20;2.72;;;17.50;57.60;;;;;;10275737;28;20034;-57
2021/01/31 07:19:12;;;;;;;8.73;2.25;;;17.60;57.30;;;;;;10273184;28;20019;-58
2021/01/31 07:24:23;;;;;;;15.32;2.53;;;17.60;57.20;;;;;;10278538;28;20037;-57
2021/01/31 07:30:01;;;;;;;13.35;2.92;;;17.70;57.50;;;;;;10285996;28;20378;-60
2021/01/31 07:35:12;;;;;;;10.93;2.10;;;17.70;57.10;;;;;;10297296;28;20035;-60
2021/01/31 07:40:20;;;;;;;16.00;2.92;;;17.70;56.80;;;;;;10283369;28;20035;-58
2021/01/31 07:45:25;;;;;;;21.00;3.85;;;17.70;56.80;;;;;;10288779;28;20038;-59
2021/01/31 07:50:39;;;;;;;15.90;3.33;;;17.70;57.20;;;;;;10286768;28;20023;-63
2021/01/31 07:55:42;;;;;;;8.98;2.50;;;17.80;57.20;;;;;;10276435;28;20488;-60
2021/01/31 08:00:46;;;;;;;13.68;2.97;;;17.80;57.30;;;;;;10288606;28;20026;-57
2021/01/31 08:06:10;;;;;;;8.48;2.58;;;17.80;57.70;;;;;;10282044;28;20109;-58
2021/01/31 08:11:16;;;;;;;10.77;2.75;;;17.80;57.60;;;;;;10283078;28;20101;-57
2021/01/31 08:16:48;;;;;;;10.05;2.33;;;17.90;57.50;;;;;;10283678;28;20468;-58
2021/01/31 08:22:04;;;;;;;10.30;2.10;;;17.90;57.60;;;;;;10295912;28;20059;-57
2021/01/31 08:27:10;;;;;;;6.78;2.53;;;17.80;57.20;;;;;;10293878;28;20031;-56
2021/01/31 08:32:14;;;;;;;13.68;2.80;;;17.80;57.40;;;;;;10294806;28;20034;-57
2021/01/31 08:37:22;;;;;;;6.65;2.53;;;17.90;56.80;;;;;;10289281;28;20065;-58
2021/01/31 08:42:23;;;;;;;6.27;2.57;;;17.90;56.40;;;;;;10292668;28;20029;-58
2021/01/31 08:47:24;;;;;;;10.35;2.67;;;17.90;56.60;;;;;;10290488;28;20038;-57
2021/01/31 08:52:26;;;;;;;6.72;2.05;;;17.90;56.80;;;;;;10294677;28;20483;-61
2021/01/31 08:57:27;;;;;;;9.70;2.30;;;18.00;56.80;;;;;;10295375;28;20031;-58
2021/01/31 09:02:28;;;;;;;5.47;2.00;;;17.90;56.60;;;;;;10295491;28;20177;-57
2021/01/31 09:07:33;;;;;;;6.30;2.42;;;17.90;56.20;;;;;;10281313;28;20043;-59
2021/01/31 09:12:34;;;;;;;6.25;1.90;;;17.90;56.20;;;;;;10293404;28;20023;-59
2021/01/31 09:17:35;;;;;;;5.03;2.00;;;17.90;56.00;;;;;;10287564;28;20033;-60
2021/01/31 09:22:45;;;;;;;7.22;1.90;;;17.90;55.90;;;;;;10293899;28;20376;-59
2021/01/31 09:28:22;;;;;;;7.82;2.50;;;18.00;55.90;;;;;;10286472;28;20038;-59
2021/01/31 09:33:39;;;;;;;4.25;1.67;;;18.00;55.90;;;;;;10278369;28;20023;-59
2021/01/31 09:38:40;;;;;;;3.80;2.10;;;18.00;55.90;;;;;;10273004;28;20023;-60
2021/01/31 09:43:44;;;;;;;4.15;1.73;;;18.00;55.80;;;;;;10275756;28;20031;-59
2021/01/31 09:48:45;;;;;;;5.28;1.83;;;18.00;55.70;;;;;;10291341;28;20567;-60
2021/01/31 09:53:46;;;;;;;4.55;2.47;;;18.00;56.20;;;;;;10292690;28;20073;-57
2021/01/31 09:58:47;;;;;;;6.05;2.72;;;18.00;56.20;;;;;;10293960;28;20039;-57
2021/01/31 10:04:00;;;;;;;10.57;3.53;;;18.00;56.70;;;;;;10286642;28;20076;-56
2021/01/31 10:09:03;;;;;;;15.02;3.28;;;18.20;57.20;;;;;;10280164;28;20054;-57
2021/01/31 10:14:04;;;;;;;18.80;4.10;;;18.10;56.90;;;;;;10271525;28;20106;-56
2021/01/31 10:19:09;;;;;;;16.75;5.00;;;18.00;57.00;;;;;;10275655;28;20038;-57
2021/01/31 10:24:31;;;;;;;12.90;4.00;;;17.90;57.60;;;;;;10284747;28;20047;-56
2021/01/31 10:29:33;;;;;;;16.13;3.97;;;17.90;57.50;;;;;;10277171;28;20037;-57
2021/01/31 10:34:41;;;;;;;19.25;5.15;;;17.80;58.00;;;;;;10275560;28;20657;-56
2021/01/31 10:39:42;;;;;;;14.82;3.75;;;17.80;57.90;;;;;;10279050;28;20113;-56
2021/01/31 10:44:43;;;;;;;15.65;4.20;;;17.70;58.00;;;;;;10274274;28;20391;-56
2021/01/31 10:49:43;;;;;;;15.88;3.75;;;17.60;59.00;;;;;;10279335;28;20027;-57
2021/01/31 10:54:44;;;;;;;18.48;4.45;;;17.50;59.20;;;;;;10277733;28;20035;-56
2021/01/31 10:59:45;;;;;;;18.17;3.22;;;17.60;58.00;;;;;;10283778;28;20105;-57
2021/01/31 11:04:45;;;;;;;9.07;3.92;;;17.60;58.30;;;;;;10282235;28;20089;-57
2021/01/31 11:09:46;;;;;;;12.27;3.85;;;17.60;58.30;;;;;;10279551;28;20042;-57
2021/01/31 11:14:47;;;;;;;11.82;3.40;;;17.60;58.60;;;;;;10276817;28;20030;-57
2021/01/31 11:19:47;;;;;;;10.85;4.28;;;17.60;58.90;;;;;;10277426;28;20069;-57
2021/01/31 11:24:49;;;;;;;6.10;2.97;;;17.50;58.00;;;;;;10282222;28;20066;-56
2021/01/31 11:29:50;;;;;;;7.10;3.00;;;17.50;59.00;;;;;;10287169;28;20113;-57
2021/01/31 11:34:51;;;;;;;10.05;3.90;;;17.50;58.50;;;;;;10282159;28;20033;-59
2021/01/31 11:39:52;;;;;;;9.45;4.20;;;17.50;57.70;;;;;;10287059;28;20106;-60
2021/01/31 11:44:52;;;;;;;13.65;4.25;;;17.50;58.30;;;;;;10279286;28;20031;-57
2021/01/31 11:49:54;;;;;;;9.60;5.00;;;17.50;58.70;;;;;;10278000;28;20411;-58
2021/01/31 11:54:55;;;;;;;10.48;4.28;;;17.60;59.20;;;;;;10285738;28;20031;-56
2021/01/31 11:59:55;;;;;;;11.23;4.10;;;17.70;59.40;;;;;;10283642;28;20035;-57
2021/01/31 12:04:56;;;;;;;15.07;4.63;;;17.70;59.70;;;;;;10282539;28;20133;-56
2021/01/31 12:09:56;;;;;;;15.65;5.65;;;17.80;59.80;;;;;;10278877;28;20057;-58
2021/01/31 12:14:57;;;;;;;10.50;4.85;;;17.90;60.00;;;;;;10271434;28;20531;-58
2021/01/31 12:19:58;;;;;;;15.15;6.70;;;18.00;59.90;;;;;;10274649;28;20058;-57
2021/01/31 12:24:59;;;;;;;11.38;5.00;;;17.90;60.50;;;;;;10286251;28;20034;-56
2021/01/31 12:29:59;;;;;;;15.15;4.93;;;17.90;61.10;;;;;;10281967;28;20045;-56
2021/01/31 12:35:00;;;;;;;11.57;5.93;;;17.90;61.50;;;;;;10286314;28;20118;-55
2021/01/31 12:40:02;;;;;;;10.43;4.25;;;17.70;60.50;;;;;;10275440;28;20031;-56
2021/01/31 12:45:06;;;;;;;13.25;5.68;;;17.60;60.40;;;;;;10280994;28;20046;-56
2021/01/31 12:50:07;;;;;;;8.73;4.22;;;17.60;60.60;;;;;;10285064;28;20035;-57
2021/01/31 12:55:12;;;;;;;8.40;5.72;;;17.50;60.50;;;;;;10280936;28;20031;-56
2021/01/31 13:00:17;;;;;;;11.57;4.90;;;17.50;61.10;;;;;;10282158;28;20034;-56
2021/01/31 13:05:21;;;;;;;19.92;4.82;;;17.40;61.60;;;;;;10283744;28;20034;-56
2021/01/31 13:10:22;;;;;;;12.55;4.95;;;17.40;61.80;;;;;;10291768;28;20483;-56
2021/01/31 13:15:24;;;;;;;6.85;3.92;;;17.30;61.20;;;;;;10285493;28;20101;-56
2021/01/31 13:20:27;;;;;;;10.93;4.70;;;17.30;61.00;;;;;;10285110;28;20050;-57
2021/01/31 13:25:28;;;;;;;9.60;3.83;;;17.20;61.00;;;;;;10289891;28;20491;-55
2021/01/31 13:30:29;;;;;;;7.20;3.72;;;17.10;60.60;;;;;;10279736;28;20035;-55
2021/01/31 13:35:30;;;;;;;6.63;4.20;;;17.10;60.40;;;;;;10290980;28;20023;-55
2021/01/31 13:40:31;;;;;;;9.68;4.57;;;17.10;60.50;;;;;;10275205;28;20086;-61
2021/01/31 13:45:31;;;;;;;6.93;4.63;;;17.00;60.60;;;;;;10277161;28;20035;-60
2021/01/31 13:50:32;;;;;;;6.22;3.83;;;16.90;60.00;;;;;;10263365;28;20035;-61
2021/01/31 13:55:33;;;;;;;9.43;4.35;;;16.90;59.30;;;;;;10282536;28;20459;-59
2021/01/31 14:00:33;;;;;;;13.05;4.05;;;16.90;59.10;;;;;;10292706;28;20034;-60
2021/01/31 14:05:34;;;;;;;8.82;4.55;;;17.00;58.80;;;;;;10291250;28;20037;-60
2021/01/31 14:10:35;;;;;;;9.40;4.80;;;17.10;58.60;;;;;;10269940;28;20125;-59
2021/01/31 14:15:36;;;;;;;8.50;4.35;;;17.10;57.90;;;;;;10271802;28;20043;-59
2021/01/31 14:20:36;;;;;;;9.65;4.05;;;17.10;57.70;;;;;;10276073;28;20018;-60
2021/01/31 14:25:37;;;;;;;6.50;4.43;;;17.20;57.70;;;;;;10292229;28;20094;-60
2021/01/31 14:30:38;;;;;;;7.68;4.68;;;17.20;57.50;;;;;;10287304;28;20101;-62
2021/01/31 14:35:38;;;;;;;8.20;4.32;;;17.20;57.50;;;;;;10283084;28;20031;-61
2021/01/31 14:40:39;;;;;;;7.78;4.40;;;17.20;57.50;;;;;;10276500;28;20054;-61
2021/01/31 14:45:40;;;;;;;8.05;3.47;;;17.30;57.40;;;;;;10276920;28;20047;-60
2021/01/31 14:50:40;;;;;;;6.40;3.80;;;17.30;58.00;;;;;;10264280;28;20135;-61
2021/01/31 14:55:41;;;;;;;8.18;3.95;;;17.30;57.50;;;;;;10280919;28;20066;-60
2021/01/31 15:00:42;;;;;;;5.82;3.80;;;17.30;57.40;;;;;;10289112;28;20023;-61
2021/01/31 15:05:46;;;;;;;7.57;4.45;;;17.30;57.40;;;;;;10269789;28;20031;-60
2021/01/31 15:10:47;;;;;;;6.72;3.35;;;17.30;57.40;;;;;;10263986;28;20078;-60
2021/01/31 15:15:48;;;;;;;5.30;3.40;;;17.30;57.90;;;;;;10263668;28;20476;-60
2021/01/31 15:20:49;;;;;;;6.30;4.10;;;17.30;57.10;;;;;;10278939;28;20019;-60
2021/01/31 15:25:49;;;;;;;4.68;3.45;;;17.40;57.00;;;;;;10285978;28;20023;-60
2021/01/31 15:30:50;;;;;;;7.22;3.50;;;17.40;56.90;;;;;;10280568;28;20085;-60
2021/01/31 15:35:50;;;;;;;5.90;3.83;;;17.40;56.60;;;;;;10277224;28;20033;-60
2021/01/31 15:40:51;;;;;;;5.55;3.85;;;17.50;56.50;;;;;;10288692;28;20620;-61
2021/01/31 15:45:52;;;;;;;6.97;4.15;;;17.50;56.20;;;;;;10271458;28;20027;-63
2021/01/31 15:50:53;;;;;;;5.45;4.10;;;17.50;55.60;;;;;;10284136;28;20041;-62
2021/01/31 15:55:53;;;;;;;6.28;3.97;;;17.40;55.60;;;;;;10282935;28;20483;-62
2021/01/31 16:00:55;;;;;;;7.75;3.85;;;17.50;55.60;;;;;;10282391;28;20094;-62
2021/01/31 16:05:56;;;;;;;10.38;4.45;;;17.50;56.20;;;;;;10267094;28;20042;-60
2021/01/31 16:10:57;;;;;;;8.60;4.22;;;17.50;55.60;;;;;;10262976;28;20127;-62
2021/01/31 16:15:59;;;;;;;9.85;4.70;;;17.50;55.90;;;;;;10259653;28;20023;-60
2021/01/31 16:21:00;;;;;;;15.13;5.47;;;17.50;56.20;;;;;;10273339;28;20098;-62
2021/01/31 16:26:01;;;;;;;11.88;4.75;;;17.60;57.00;;;;;;10285524;28;20527;-62
2021/01/31 16:31:02;;;;;;;11.63;4.68;;;17.60;56.50;;;;;;10278894;28;20042;-61
2021/01/31 16:36:03;;;;;;;12.93;4.75;;;17.60;56.90;;;;;;10279886;28;20019;-62
2021/01/31 16:41:04;;;;;;;18.35;5.45;;;17.60;57.00;;;;;;10289474;28;20026;-62
2021/01/31 16:46:05;;;;;;;15.55;5.05;;;17.60;56.70;;;;;;10287950;28;20113;-62
2021/01/31 16:51:05;;;;;;;14.68;4.95;;;17.70;56.90;;;;;;10278484;28;20098;-63
2021/01/31 16:56:06;;;;;;;13.95;5.97;;;17.80;57.30;;;;;;10289618;28;20032;-62
2021/01/31 17:01:07;;;;;;;13.63;6.63;;;17.80;59.40;;;;;;10288295;28;20102;-59
2021/01/31 17:06:08;;;;;;;19.85;8.57;;;17.80;62.00;;;;;;10278959;28;20039;-61
2021/01/31 17:11:09;;;;;;;17.95;7.75;;;17.80;62.50;;;;;;10270188;28;20055;-61
2021/01/31 17:16:09;;;;;;;17.38;8.40;;;17.80;62.90;;;;;;10264349;28;20067;-61
2021/01/31 17:21:10;;;;;;;13.52;7.53;;;17.90;62.20;;;;;;10281365;28;20031;-59
2021/01/31 17:26:11;;;;;;;14.38;7.38;;;17.90;62.00;;;;;;10295147;28;20038;-59
2021/01/31 17:31:12;;;;;;;12.88;6.47;;;17.90;62.20;;;;;;10287451;28;20497;-59
2021/01/31 17:36:15;;;;;;;12.50;6.20;;;17.90;62.10;;;;;;10282342;28;20033;-60
2021/01/31 17:41:16;;;;;;;15.60;6.78;;;17.90;61.30;;;;;;10296323;28;20031;-62
2021/01/31 17:46:17;;;;;;;18.88;6.57;;;17.90;61.40;;;;;;10269212;28;20062;-60
2021/01/31 17:51:18;;;;;;;25.65;6.75;;;17.90;62.00;;;;;;10277874;28;20042;-61
2021/01/31 17:56:18;;;;;;;15.32;7.10;;;17.90;62.20;;;;;;10275181;28;20128;-59
2021/01/31 18:01:19;;;;;;;16.55;6.45;;;17.80;62.50;;;;;;10288445;28;20057;-57
2021/01/31 18:06:20;;;;;;;19.40;6.68;;;17.80;62.20;;;;;;10273447;28;20472;-58
2021/01/31 18:11:20;;;;;;;12.65;6.03;;;17.70;61.30;;;;;;10267548;28;20114;-59
2021/01/31 18:16:21;;;;;;;19.90;6.10;;;17.70;60.90;;;;;;10261544;28;20550;-59
2021/01/31 18:21:22;;;;;;;8.95;5.82;;;17.70;60.60;;;;;;10279292;28;20027;-59
2021/01/31 18:26:31;;;;;;;14.25;5.80;;;17.70;60.30;;;;;;10291794;28;20034;-59
2021/01/31 18:31:33;;;;;;;10.43;5.25;;;17.70;60.30;;;;;;10291176;28;20030;-58
2021/01/31 18:36:34;;;;;;;6.80;4.25;;;17.70;60.00;;;;;;10287906;28;20042;-59
2021/01/31 18:41:35;;;;;;;11.55;4.80;;;17.70;59.70;;;;;;10285777;28;20089;-59
2021/01/31 18:46:43;;;;;;;9.80;5.18;;;17.70;59.50;;;;;;10283250;28;20031;-59
2021/01/31 18:51:44;;;;;;;10.80;4.80;;;17.70;59.30;;;;;;10293323;28;20031;-59
2021/01/31 18:56:47;;;;;;;9.80;4.55;;;17.60;59.20;;;;;;10284112;28;20031;-59
2021/01/31 19:01:47;;;;;;;10.57;4.75;;;17.60;59.10;;;;;;10279541;28;20034;-59
2021/01/31 19:06:52;;;;;;;12.18;5.50;;;17.60;59.50;;;;;;10281058;28;20768;-58
2021/01/31 19:11:53;;;;;;;9.18;4.28;;;17.60;60.10;;;;;;10288608;28;20042;-59
2021/01/31 19:16:54;;;;;;;9.05;5.65;;;17.70;59.40;;;;;;10282732;28;20023;-59
2021/01/31 19:21:55;;;;;;;10.65;4.55;;;17.70;59.30;;;;;;10282775;28;20030;-59
2021/01/31 19:26:55;;;;;;;9.15;4.80;;;17.70;59.20;;;;;;10289162;28;20019;-60
2021/01/31 19:31:56;;;;;;;6.13;3.67;;;17.70;59.10;;;;;;10272047;28;20126;-59
2021/01/31 19:36:57;;;;;;;6.22;4.65;;;17.80;59.20;;;;;;10293280;28;20069;-60
2021/01/31 19:41:58;;;;;;;6.45;3.83;;;17.70;59.10;;;;;;10277169;28;20054;-59
2021/01/31 19:46:59;;;;;;;5.20;3.60;;;17.70;59.00;;;;;;10275742;28;20059;-60
2021/01/31 19:52:00;;;;;;;8.48;4.18;;;17.70;58.90;;;;;;10281940;28;20491;-60
2021/01/31 19:57:00;;;;;;;7.15;3.65;;;17.70;58.90;;;;;;10280159;28;20114;-60
2021/01/31 20:02:01;;;;;;;5.72;3.80;;;17.70;58.90;;;;;;10290423;28;20070;-60
2021/01/31 20:07:02;;;;;;;7.13;3.60;;;17.70;58.90;;;;;;10284622;28;20098;-60
2021/01/31 20:12:03;;;;;;;7.32;3.80;;;17.70;58.80;;;;;;10281421;28;20371;-59
2021/01/31 20:17:05;;;;;;;5.35;3.20;;;17.80;58.80;;;;;;10289808;28;20034;-59
2021/01/31 20:22:05;;;;;;;5.97;4.03;;;17.70;58.60;;;;;;10314710;28;20125;-60
2021/01/31 20:27:06;;;;;;;5.97;3.88;;;17.80;58.70;;;;;;10296430;28;20114;-61
2021/01/31 20:32:07;;;;;;;4.88;3.72;;;17.70;58.70;;;;;;10284762;28;20042;-58
2021/01/31 20:37:07;;;;;;;7.63;3.65;;;17.70;58.60;;;;;;10285932;28;20046;-58
2021/01/31 20:42:08;;;;;;;4.82;3.50;;;17.70;58.70;;;;;;10280425;28;20109;-59
2021/01/31 20:47:09;;;;;;;5.65;2.90;;;17.70;58.60;;;;;;10278873;28;20365;-58
2021/01/31 20:52:10;;;;;;;6.45;3.47;;;17.70;58.40;;;;;;10293358;28;20057;-58
2021/01/31 20:57:10;;;;;;;4.53;3.10;;;17.70;58.20;;;;;;10292303;28;20106;-58
2021/01/31 21:02:11;;;;;;;5.18;3.08;;;17.70;58.20;;;;;;10285233;28;20097;-58
2021/01/31 21:07:12;;;;;;;4.78;2.92;;;17.70;57.90;;;;;;10279648;28;20129;-58
2021/01/31 21:12:12;;;;;;;7.22;2.90;;;17.70;57.70;;;;;;10268352;28;20058;-58
2021/01/31 21:17:13;;;;;;;6.88;3.30;;;17.70;57.60;;;;;;10273442;28;20142;-58
2021/01/31 21:22:14;;;;;;;4.45;3.00;;;17.70;57.50;;;;;;10277632;28;20486;-58
2021/01/31 21:27:15;;;;;;;5.15;2.65;;;17.70;57.40;;;;;;10289836;28;20110;-58
2021/01/31 21:32:16;;;;;;;4.97;2.85;;;17.70;57.30;;;;;;10287247;28;20357;-58
2021/01/31 21:37:17;;;;;;;4.03;2.78;;;17.70;57.20;;;;;;10276460;28;20038;-57
2021/01/31 21:42:18;;;;;;;3.35;2.85;;;17.70;57.00;;;;;;10279833;28;20090;-59
2021/01/31 21:47:19;;;;;;;6.10;2.70;;;17.60;56.90;;;;;;10276282;28;20031;-58
2021/01/31 21:52:20;;;;;;;4.95;3.00;;;17.70;56.90;;;;;;10263104;28;20038;-58
2021/01/31 21:57:20;;;;;;;5.13;2.65;;;17.70;56.70;;;;;;10282503;28;20128;-59
2021/01/31 22:02:21;;;;;;;4.18;3.25;;;17.70;56.50;;;;;;10278998;28;20035;-58
2021/01/31 22:07:22;;;;;;;3.63;2.28;;;17.70;56.50;;;;;;10266801;28;20043;-58
2021/01/31 22:12:22;;;;;;;4.47;2.20;;;17.70;56.50;;;;;;10266858;28;20102;-58
2021/01/31 22:17:23;;;;;;;3.78;2.90;;;17.70;56.40;;;;;;10261078;28;20035;-58
2021/01/31 22:22:25;;;;;;;3.13;2.22;;;17.70;56.30;;;;;;10285326;28;20035;-58
2021/01/31 22:27:26;;;;;;;3.67;3.03;;;17.70;56.20;;;;;;10287866;28;20038;-59
2021/01/31 22:32:27;;;;;;;4.25;2.63;;;17.60;56.20;;;;;;10280315;28;20494;-58
2021/01/31 22:37:27;;;;;;;3.20;2.38;;;17.70;56.10;;;;;;10278344;28;20125;-58
2021/01/31 22:42:28;;;;;;;2.95;2.22;;;17.70;56.00;;;;;;10268526;28;20031;-58
2021/01/31 22:47:29;;;;;;;4.07;2.85;;;17.70;55.80;;;;;;10293921;28;20039;-58
2021/01/31 22:52:29;;;;;;;3.80;2.72;;;17.70;56.00;;;;;;10276099;28;20129;-58
2021/01/31 22:57:30;;;;;;;4.25;2.70;;;17.70;55.80;;;;;;10288599;28;20463;-58
2021/01/31 23:02:31;;;;;;;3.88;2.55;;;17.70;55.80;;;;;;10280042;28;20479;-58
2021/01/31 23:07:32;;;;;;;3.80;3.00;;;17.70;55.80;;;;;;10271210;28;20045;-58
2021/01/31 23:12:33;;;;;;;4.63;2.50;;;17.70;55.80;;;;;;10274253;28;20023;-58
2021/01/31 23:17:33;;;;;;;3.60;2.65;;;17.70;55.80;;;;;;10268382;28;20034;-58
2021/01/31 23:22:35;;;;;;;4.07;2.58;;;17.70;55.50;;;;;;10284799;28;20038;-58
2021/01/31 23:27:37;;;;;;;3.45;2.42;;;17.70;55.40;;;;;;10283908;28;20035;-58
2021/01/31 23:32:37;;;;;;;3.40;2.67;;;17.70;55.30;;;;;;10278978;28;20041;-58
2021/01/31 23:37:38;;;;;;;4.10;2.60;;;17.70;55.40;;;;;;10286302;28;20052;-58
2021/01/31 23:42:39;;;;;;;4.25;2.50;;;17.70;55.30;;;;;;10267796;28;20692;-59
2021/01/31 23:47:40;;;;;;;5.57;2.95;;;17.70;55.20;;;;;;10266864;28;20039;-58
2021/01/31 23:52:42;;;;;;;5.28;2.90;;;17.70;55.20;;;;;;10245551;28;20506;-58
2021/01/31 23:57:43;;;;;;;3.25;2.22;;;17.70;55.30;;;;;;10277665;28;20039;-58
